createdAt,value
2019-05-13T00:00:10.341Z,1.70
2019-05-13T00:02:44.188Z,2.30
2019-05-13T00:05:17.988Z,1.80
2019-05-13T00:07:53.832Z,2.30
2019-05-13T00:10:27.377Z,2.25
2019-05-13T00:13:01.248Z,2.15
2019-05-13T00:15:34.992Z,2.00
2019-05-13T00:18:09.020Z,1.70
2019-05-13T00:20:44.300Z,1.90
2019-05-13T00:23:19.376Z,1.90
2019-05-13T00:25:54.571Z,1.67
2019-05-13T00:28:29.834Z,1.90
2019-05-13T00:31:03.641Z,1.70
2019-05-13T00:33:37.359Z,1.70
2019-05-13T00:36:14.105Z,1.95
2019-05-13T00:38:47.167Z,1.70
2019-05-13T00:41:21.806Z,1.60
2019-05-13T00:43:57.079Z,1.70
2019-05-13T00:46:30.809Z,1.70
2019-05-13T00:49:04.888Z,1.90
2019-05-13T00:51:38.726Z,1.80
2019-05-13T00:54:13.601Z,1.60
2019-05-13T00:56:49.223Z,1.80
2019-05-13T00:59:24.238Z,2.00
2019-05-13T01:01:58.101Z,1.70
2019-05-13T01:04:33.867Z,1.60
2019-05-13T01:07:15.399Z,1.65
2019-05-13T01:09:44.335Z,1.50
2019-05-13T01:12:18.115Z,1.80
2019-05-13T01:14:53.444Z,1.75
2019-05-13T01:17:27.394Z,1.90
2019-05-13T01:20:01.217Z,1.90
2019-05-13T01:22:34.957Z,1.70
2019-05-13T01:25:08.779Z,1.77
2019-05-13T01:27:44.173Z,1.70
2019-05-13T01:30:19.165Z,1.75
2019-05-13T01:32:53.981Z,1.87
2019-05-13T01:35:27.860Z,1.60
2019-05-13T01:38:04.235Z,1.60
2019-05-13T01:40:37.366Z,2.20
2019-05-13T01:43:11.063Z,1.62
2019-05-13T01:45:44.823Z,1.80
2019-05-13T01:48:18.707Z,1.60
2019-05-13T01:50:53.353Z,1.60
2019-05-13T01:53:27.554Z,1.80
2019-05-13T01:56:03.919Z,2.05
2019-05-13T01:58:37.858Z,1.92
2019-05-13T02:01:13.863Z,1.60
2019-05-13T02:03:47.277Z,2.00
2019-05-13T02:06:20.930Z,1.70
2019-05-13T02:08:54.731Z,1.77
2019-05-13T02:11:28.840Z,1.60
2019-05-13T02:14:05.924Z,1.77
2019-05-13T02:16:39.665Z,1.50
2019-05-13T02:19:14.299Z,1.90
2019-05-13T02:21:48.182Z,1.47
2019-05-13T02:24:23.823Z,1.80
2019-05-13T02:26:57.733Z,1.90
2019-05-13T02:29:34.202Z,1.90
2019-05-13T02:32:07.051Z,1.67
2019-05-13T02:34:43.777Z,1.80
2019-05-13T02:37:16.313Z,1.52
2019-05-13T02:39:52.942Z,1.70
2019-05-13T02:42:25.469Z,1.70
2019-05-13T02:44:59.231Z,1.82
2019-05-13T02:47:33.293Z,1.70
2019-05-13T02:50:07.383Z,1.70
2019-05-13T02:52:43.919Z,1.70
2019-05-13T02:55:16.543Z,1.70
2019-05-13T02:57:52.785Z,1.60
2019-05-13T03:00:25.758Z,1.95
2019-05-13T03:03:02.910Z,1.60
2019-05-13T03:05:35.064Z,1.65
2019-05-13T03:08:12.447Z,1.70
2019-05-13T03:10:44.180Z,1.70
2019-05-13T03:13:17.977Z,1.75
2019-05-13T03:16:02.481Z,1.67
2019-05-13T03:18:35.200Z,1.75
2019-05-13T03:21:12.423Z,1.62
2019-05-13T03:23:44.656Z,1.92
2019-05-13T03:26:18.592Z,1.90
2019-05-13T03:28:52.586Z,1.65
2019-05-13T03:31:27.025Z,1.60
2019-05-13T03:34:06.599Z,1.85
2019-05-13T03:36:44.955Z,1.70
2019-05-13T03:39:16.644Z,2.02
2019-05-13T03:41:52.874Z,1.70
2019-05-13T03:44:25.770Z,1.57
2019-05-13T03:46:59.365Z,1.72
2019-05-13T03:49:35.669Z,2.00
2019-05-13T03:52:09.262Z,1.90
2019-05-13T03:54:43.718Z,1.70
2019-05-13T03:57:17.555Z,1.32
2019-05-13T03:59:52.641Z,1.50
2019-05-13T04:02:26.504Z,1.60
2019-05-13T04:05:03.784Z,1.70
2019-05-13T04:07:35.839Z,1.70
2019-05-13T04:10:12.909Z,1.60
2019-05-13T04:12:45.284Z,1.62
2019-05-13T04:15:23.492Z,1.40
2019-05-13T04:17:56.377Z,1.70
2019-05-13T04:20:33.008Z,1.72
2019-05-13T04:23:05.662Z,1.70
2019-05-13T04:25:44.245Z,1.70
2019-05-13T04:28:14.829Z,1.50
2019-05-13T04:30:48.843Z,1.82
2019-05-13T04:33:23.305Z,2.98
2019-05-13T04:35:57.155Z,1.80
2019-05-13T04:38:33.031Z,2.62
2019-05-13T04:41:06.461Z,2.55
2019-05-13T04:43:43.819Z,2.33
2019-05-13T04:46:15.614Z,2.62
2019-05-13T04:48:52.744Z,2.10
2019-05-13T04:51:24.774Z,2.30
2019-05-13T04:53:58.516Z,2.10
2019-05-13T04:56:33.236Z,2.20
2019-05-13T04:59:07.248Z,2.10
2019-05-13T05:02:49.494Z,1.70
2019-05-13T05:05:55.516Z,2.12
2019-05-13T05:09:03.296Z,1.85
2019-05-13T05:12:51.889Z,1.57
2019-05-13T05:16:21.964Z,2.27
2019-05-13T05:19:44.894Z,2.27
2019-05-13T05:23:25.690Z,2.00
2019-05-13T05:27:08.512Z,2.25
2019-05-13T05:30:26.687Z,2.00
2019-05-13T05:34:06.479Z,2.05
2019-05-13T05:37:26.884Z,2.12
2019-05-13T05:40:01.968Z,2.17
2019-05-13T05:42:36.238Z,2.67
2019-05-13T05:45:11.572Z,2.47
2019-05-13T05:47:45.707Z,2.15
2019-05-13T05:50:19.436Z,2.52
2019-05-13T05:52:53.172Z,2.20
2019-05-13T05:55:26.979Z,2.30
2019-05-13T05:58:01.607Z,2.80
2019-05-13T06:00:36.247Z,2.25
2019-05-13T06:03:13.572Z,2.42
2019-05-13T06:05:45.711Z,3.12
2019-05-13T06:08:22.055Z,2.35
2019-05-13T06:10:56.093Z,2.47
2019-05-13T06:13:31.600Z,2.45
2019-05-13T06:16:05.343Z,2.22
2019-05-13T06:18:41.398Z,2.85
2019-05-13T06:21:14.923Z,2.80
2019-05-13T06:23:48.651Z,2.52
2019-05-13T06:26:23.689Z,2.25
2019-05-13T06:28:59.251Z,2.60
2019-05-13T06:31:33.919Z,2.70
2019-05-13T06:34:07.620Z,2.55
2019-05-13T06:36:41.990Z,2.87
2019-05-13T06:39:15.853Z,2.62
2019-05-13T06:41:51.660Z,2.60
2019-05-13T06:44:24.984Z,2.62
2019-05-13T06:46:58.742Z,2.30
2019-05-13T06:49:32.713Z,2.37
2019-05-13T06:52:06.525Z,2.72
2019-05-13T06:54:41.870Z,2.55
2019-05-13T06:57:15.913Z,5.20
2019-05-13T06:59:52.030Z,3.62
2019-05-13T07:02:25.145Z,6.35
2019-05-13T07:04:58.927Z,5.12
2019-05-13T07:07:33.214Z,7.83
2019-05-13T07:10:07.144Z,5.90
2019-05-13T07:12:41.320Z,5.60
2019-05-13T07:15:15.198Z,6.05
2019-05-13T07:17:51.805Z,7.08
2019-05-13T07:20:24.411Z,5.37
2019-05-13T07:22:58.177Z,6.08
2019-05-13T07:25:32.839Z,5.75
2019-05-13T07:28:06.713Z,5.20
2019-05-13T07:30:43.250Z,5.20
2019-05-13T07:33:16.992Z,5.10
2019-05-13T07:35:57.279Z,4.70
2019-05-13T07:38:26.259Z,5.10
2019-05-13T07:41:04.621Z,4.85
2019-05-13T07:43:39.339Z,5.03
2019-05-13T07:46:13.139Z,4.80
2019-05-13T07:48:46.987Z,4.60
2019-05-13T07:51:22.168Z,4.58
2019-05-13T07:53:56.318Z,4.20
2019-05-13T07:56:32.411Z,4.60
2019-05-13T07:59:05.399Z,4.37
2019-05-13T08:01:41.541Z,4.42
2019-05-13T08:04:22.447Z,4.10
2019-05-13T08:06:52.364Z,4.33
2019-05-13T08:09:25.615Z,4.20
2019-05-13T08:12:08.681Z,4.20
2019-05-13T08:14:35.186Z,4.40
2019-05-13T08:17:11.648Z,4.12
2019-05-13T08:19:46.254Z,4.40
2019-05-13T08:22:22.074Z,3.83
2019-05-13T08:24:55.544Z,4.40
2019-05-13T08:27:30.803Z,3.92
2019-05-13T08:30:07.110Z,4.37
2019-05-13T08:32:41.900Z,4.20
2019-05-13T08:35:15.773Z,4.37
2019-05-13T08:37:51.867Z,4.15
2019-05-13T08:40:25.521Z,4.25
2019-05-13T08:43:01.340Z,4.65
2019-05-13T08:45:34.749Z,4.35
2019-05-13T08:48:08.578Z,3.67
2019-05-13T08:50:42.844Z,3.98
2019-05-13T08:53:16.531Z,3.35
2019-05-13T08:55:52.098Z,3.75
2019-05-13T08:58:27.249Z,4.20
2019-05-13T09:01:02.209Z,3.83
2019-05-13T09:03:36.291Z,3.77
2019-05-13T09:06:11.648Z,3.87
2019-05-13T09:08:45.630Z,3.87
2019-05-13T09:11:19.374Z,4.40
2019-05-13T09:13:53.243Z,3.17
2019-05-13T09:16:27.142Z,4.00
2019-05-13T09:19:03.670Z,3.90
2019-05-13T09:21:36.531Z,4.55
2019-05-13T09:24:24.114Z,3.62
2019-05-13T09:26:47.209Z,4.30
2019-05-13T09:29:22.549Z,3.70
2019-05-13T09:31:56.706Z,3.67
2019-05-13T09:34:32.819Z,3.40
2019-05-13T09:37:06.143Z,4.30
2019-05-13T09:39:41.478Z,4.08
2019-05-13T09:42:15.398Z,4.20
2019-05-13T09:44:49.257Z,3.70
2019-05-13T09:47:23.160Z,4.05
2019-05-13T09:49:57.075Z,4.05
2019-05-13T09:52:31.880Z,4.15
2019-05-13T09:55:21.128Z,4.15
2019-05-13T09:57:41.877Z,4.67
2019-05-13T10:00:17.307Z,4.90
2019-05-13T10:02:53.033Z,4.97
2019-05-13T10:05:26.871Z,4.53
2019-05-13T10:08:02.669Z,4.75
2019-05-13T10:10:36.683Z,5.62
2019-05-13T10:13:13.112Z,5.45
2019-05-13T10:15:48.664Z,5.95
2019-05-13T10:18:22.043Z,5.33
2019-05-13T10:20:59.035Z,5.90
2019-05-13T10:23:33.481Z,6.42
2019-05-13T10:26:12.521Z,6.05
2019-05-13T10:28:44.926Z,5.33
2019-05-13T10:31:18.787Z,5.60
2019-05-13T10:33:53.106Z,5.30
2019-05-13T10:36:26.872Z,5.08
2019-05-13T10:39:01.346Z,5.05
2019-05-13T10:41:35.519Z,4.92
2019-05-13T10:44:12.105Z,5.25
2019-05-13T10:46:45.081Z,5.22
2019-05-13T10:49:19.370Z,4.97
2019-05-13T10:51:55.930Z,4.90
2019-05-13T10:54:32.264Z,5.12
2019-05-13T10:57:06.549Z,5.75
2019-05-13T10:59:40.253Z,5.33
2019-05-13T11:02:14.362Z,5.85
2019-05-13T11:04:49.330Z,7.00
2019-05-13T11:07:22.967Z,6.97
2019-05-13T11:09:56.836Z,6.62
2019-05-13T11:12:33.367Z,7.78
2019-05-13T11:15:06.563Z,7.33
2019-05-13T11:17:42.668Z,10.08
2019-05-13T11:20:16.177Z,11.38
2019-05-13T11:22:52.148Z,9.73
2019-05-13T11:25:26.144Z,10.38
2019-05-13T11:28:01.654Z,10.03
2019-05-13T11:30:35.422Z,7.20
2019-05-13T11:33:10.209Z,7.53
2019-05-13T11:35:44.030Z,6.53
2019-05-13T11:38:21.569Z,6.72
2019-05-13T11:40:54.527Z,6.58
2019-05-13T11:43:28.994Z,6.72
2019-05-13T11:46:03.167Z,5.50
2019-05-13T11:48:36.869Z,5.85
2019-05-13T11:51:13.034Z,18.45
2019-05-13T11:53:46.040Z,7.25
2019-05-13T11:56:22.731Z,6.20
2019-05-13T11:58:56.924Z,6.78
2019-05-13T12:01:33.359Z,6.97
2019-05-13T12:04:06.225Z,7.40
2019-05-13T12:06:47.745Z,7.28
2019-05-13T12:09:15.604Z,7.55
2019-05-13T12:11:50.352Z,7.40
2019-05-13T12:14:43.489Z,7.28
2019-05-13T12:17:02.014Z,7.80
2019-05-13T12:19:35.098Z,7.00
2019-05-13T12:22:08.936Z,7.80
2019-05-13T12:24:43.280Z,7.92
2019-05-13T12:27:16.907Z,6.95
2019-05-13T12:29:52.750Z,6.62
2019-05-13T12:32:26.154Z,6.80
2019-05-13T12:35:03.244Z,6.60
2019-05-13T12:37:35.427Z,7.30
2019-05-13T12:40:09.122Z,6.40
2019-05-13T12:42:46.847Z,6.10
2019-05-13T12:45:22.486Z,6.50
2019-05-13T12:47:55.705Z,6.55
2019-05-13T12:50:29.462Z,6.55
2019-05-13T12:53:03.264Z,5.90
2019-05-13T12:55:36.989Z,5.92
2019-05-13T12:58:12.281Z,6.33
2019-05-13T13:00:46.330Z,6.40
2019-05-13T13:03:23.300Z,6.35
2019-05-13T13:06:21.123Z,6.45
2019-05-13T13:08:43.070Z,6.08
2019-05-13T13:11:07.101Z,5.70
2019-05-13T13:13:58.097Z,6.25
2019-05-13T13:16:16.517Z,6.22
2019-05-13T13:18:52.114Z,5.90
2019-05-13T13:21:33.317Z,5.33
2019-05-13T13:24:04.488Z,5.28
2019-05-13T13:26:42.446Z,4.90
2019-05-13T13:29:15.044Z,5.42
2019-05-13T13:31:48.918Z,5.78
2019-05-13T13:34:25.887Z,5.50
2019-05-13T13:36:58.440Z,5.25
2019-05-13T13:39:32.539Z,5.42
2019-05-13T13:42:06.469Z,5.08
2019-05-13T13:44:42.894Z,5.22
2019-05-13T13:47:15.552Z,5.20
2019-05-13T13:49:49.742Z,5.10
2019-05-13T13:52:24.833Z,5.28
2019-05-13T13:55:03.440Z,5.00
2019-05-13T13:57:33.947Z,4.78
2019-05-13T14:00:31.761Z,4.70
2019-05-13T14:02:43.309Z,4.25
2019-05-13T14:05:17.616Z,4.60
2019-05-13T14:07:52.222Z,4.25
2019-05-13T14:10:26.168Z,4.50
2019-05-13T14:13:04.546Z,4.30
2019-05-13T14:15:35.323Z,4.80
2019-05-13T14:18:11.283Z,4.10
2019-05-13T14:20:44.992Z,4.10
2019-05-13T14:23:21.304Z,4.42
2019-05-13T14:25:55.850Z,4.78
2019-05-13T14:28:32.512Z,4.15
2019-05-13T14:31:05.166Z,4.00
2019-05-13T14:33:38.909Z,4.50
2019-05-13T14:36:12.990Z,4.08
2019-05-13T14:38:46.673Z,4.35
2019-05-13T14:41:22.098Z,4.17
2019-05-13T14:43:56.966Z,4.15
2019-05-13T14:46:46.367Z,3.80
2019-05-13T14:49:07.737Z,4.15
2019-05-13T14:51:42.121Z,3.72
2019-05-13T14:54:15.947Z,4.05
2019-05-13T14:56:52.033Z,3.90
2019-05-13T14:59:31.485Z,3.55
2019-05-13T15:02:05.408Z,3.77
2019-05-13T15:04:41.729Z,4.20
2019-05-13T15:07:14.555Z,4.22
2019-05-13T15:09:48.325Z,3.85
2019-05-13T15:12:22.364Z,3.77
2019-05-13T15:14:56.133Z,4.15
2019-05-13T15:17:32.399Z,4.45
2019-05-13T15:20:06.311Z,3.70
2019-05-13T15:22:42.205Z,3.87
2019-05-13T15:25:15.462Z,4.08
2019-05-13T15:27:49.185Z,4.00
2019-05-13T15:30:23.121Z,3.72
2019-05-13T15:32:57.076Z,3.80
2019-05-13T15:35:32.131Z,3.70
2019-05-13T15:38:06.001Z,3.72
2019-05-13T15:40:41.491Z,3.80
2019-05-13T15:43:15.257Z,3.98
2019-05-13T15:45:51.169Z,3.90
2019-05-13T15:48:24.501Z,4.10
2019-05-13T15:50:58.328Z,4.08
2019-05-13T15:53:32.396Z,3.87
2019-05-13T15:56:06.147Z,3.87
2019-05-13T15:58:41.522Z,3.70
2019-05-13T16:01:15.326Z,4.20
2019-05-13T16:03:49.016Z,4.17
2019-05-13T16:06:24.599Z,4.80
2019-05-13T16:08:58.516Z,4.62
2019-05-13T16:11:32.772Z,4.42
2019-05-13T16:14:07.094Z,4.55
2019-05-13T16:16:41.643Z,4.90
2019-05-13T16:19:15.778Z,4.87
2019-05-13T16:21:51.802Z,4.53
2019-05-13T16:24:25.610Z,4.47
2019-05-13T16:26:59.226Z,4.87
2019-05-13T16:29:33.091Z,5.03
2019-05-13T16:32:07.185Z,4.78
2019-05-13T16:34:42.282Z,4.95
2019-05-13T16:37:16.384Z,4.87
2019-05-13T16:39:52.040Z,4.70
2019-05-13T16:42:25.525Z,4.75
2019-05-13T16:44:59.279Z,4.45
2019-05-13T16:47:33.489Z,4.85
2019-05-13T16:50:07.684Z,4.37
2019-05-13T16:52:41.909Z,4.60
2019-05-13T16:55:15.700Z,4.40
2019-05-13T16:57:51.326Z,4.40
2019-05-13T17:00:25.144Z,4.35
2019-05-13T17:02:58.825Z,4.20
2019-05-13T17:05:32.794Z,4.62
2019-05-13T17:08:06.538Z,4.55
2019-05-13T17:10:42.001Z,4.17
2019-05-13T17:13:15.824Z,4.45
2019-05-13T17:15:49.539Z,4.40
2019-05-13T17:18:23.244Z,4.85
2019-05-13T17:20:56.991Z,3.60
2019-05-13T17:23:32.067Z,4.28
2019-05-13T17:26:05.883Z,4.05
2019-05-13T17:28:41.783Z,4.53
2019-05-13T17:31:15.077Z,3.92
2019-05-13T17:33:48.763Z,4.22
2019-05-13T17:36:22.518Z,4.72
2019-05-13T17:38:56.322Z,4.17
2019-05-13T17:41:31.925Z,4.17
2019-05-13T17:44:05.517Z,4.17
2019-05-13T17:46:41.909Z,4.72
2019-05-13T17:49:16.026Z,4.75
2019-05-13T17:51:51.684Z,4.42
2019-05-13T17:54:25.648Z,5.10
2019-05-13T17:57:01.611Z,5.95
2019-05-13T17:59:34.896Z,5.53
2019-05-13T18:02:08.770Z,5.22
2019-05-13T18:04:43.080Z,4.70
2019-05-13T18:07:16.823Z,4.83
2019-05-13T18:09:52.033Z,4.67
2019-05-13T18:12:25.902Z,4.05
2019-05-13T18:15:02.276Z,4.83
2019-05-13T18:17:35.374Z,4.70
2019-05-13T18:20:09.224Z,4.83
2019-05-13T18:22:42.971Z,4.08
2019-05-13T18:25:16.819Z,4.00
2019-05-13T18:27:52.167Z,3.70
2019-05-13T18:30:26.232Z,4.45
2019-05-13T18:33:01.304Z,4.10
2019-05-13T18:35:35.199Z,3.85
2019-05-13T18:38:08.913Z,4.20
2019-05-13T18:40:42.740Z,2.90
2019-05-13T18:43:16.582Z,3.90
2019-05-13T18:45:52.666Z,3.92
2019-05-13T18:48:25.891Z,3.90
2019-05-13T18:51:01.303Z,4.00
2019-05-13T18:53:35.567Z,4.55
2019-05-13T18:56:09.263Z,3.55
2019-05-13T18:58:43.041Z,4.05
2019-05-13T19:01:16.905Z,3.98
2019-05-13T19:03:50.784Z,3.90
2019-05-13T19:06:24.561Z,3.95
2019-05-13T19:08:58.428Z,4.30
2019-05-13T19:11:32.359Z,4.20
2019-05-13T19:14:06.072Z,4.03
2019-05-13T19:16:41.995Z,4.85
2019-05-13T19:19:17.043Z,4.83
2019-05-13T19:21:51.194Z,4.33
2019-05-13T19:24:25.065Z,4.67
2019-05-13T19:27:01.484Z,4.35
2019-05-13T19:29:34.525Z,4.65
2019-05-13T19:32:08.403Z,6.22
2019-05-13T19:34:42.471Z,14.60
2019-05-13T19:37:16.465Z,17.80
2019-05-13T19:39:50.180Z,18.67
2019-05-13T19:42:23.900Z,23.52
2019-05-13T19:44:57.733Z,25.60
2019-05-13T19:47:31.454Z,19.77
2019-05-13T19:50:05.479Z,19.25
2019-05-13T19:52:41.294Z,17.60
2019-05-13T19:55:14.677Z,16.70
2019-05-13T19:57:48.516Z,16.50
2019-05-13T20:00:22.630Z,14.58
2019-05-13T20:02:56.462Z,13.62
2019-05-13T20:05:31.757Z,12.75
2019-05-13T20:08:05.907Z,12.98
2019-05-13T20:10:42.337Z,12.80
2019-05-13T20:13:15.550Z,11.48
2019-05-13T20:15:49.304Z,11.93
2019-05-13T20:18:26.390Z,11.97
2019-05-13T20:21:01.072Z,11.45
2019-05-13T20:23:34.419Z,11.15
2019-05-13T20:26:08.133Z,8.90
2019-05-13T20:28:42.161Z,6.55
2019-05-13T20:31:15.910Z,6.22
2019-05-13T20:33:51.547Z,5.17
2019-05-13T20:36:25.291Z,5.80
2019-05-13T20:38:59.173Z,5.87
2019-05-13T20:41:33.162Z,7.28
2019-05-13T20:44:06.917Z,6.60
2019-05-13T20:46:42.281Z,6.70
2019-05-13T20:49:16.356Z,6.90
2019-05-13T20:51:51.673Z,6.53
2019-05-13T20:54:25.403Z,6.62
2019-05-13T20:56:59.068Z,6.80
2019-05-13T20:59:33.167Z,7.00
2019-05-13T21:02:06.946Z,7.10
2019-05-13T21:04:40.666Z,6.58
2019-05-13T21:07:14.428Z,6.67
2019-05-13T21:09:48.287Z,6.67
2019-05-13T21:12:22.201Z,6.83
2019-05-13T21:14:55.967Z,6.58
2019-05-13T21:17:29.623Z,6.37
2019-05-13T21:20:18.290Z,6.65
2019-05-13T21:22:38.972Z,5.90
2019-05-13T21:25:12.694Z,6.42
2019-05-13T21:27:46.482Z,6.22
2019-05-13T21:30:22.119Z,6.58
2019-05-13T21:32:55.847Z,6.37
2019-05-13T21:35:31.624Z,6.33
2019-05-13T21:38:05.313Z,6.00
2019-05-13T21:40:41.344Z,6.05
2019-05-13T21:43:14.534Z,6.33
2019-05-13T21:45:48.239Z,5.97
2019-05-13T21:48:22.454Z,6.40
2019-05-13T21:50:56.170Z,5.60
2019-05-13T21:53:32.582Z,5.72
2019-05-13T21:56:07.315Z,4.97
2019-05-13T21:58:41.585Z,5.80
2019-05-13T22:01:15.572Z,5.53
2019-05-13T22:03:51.282Z,5.78
2019-05-13T22:06:24.814Z,5.67
2019-05-13T22:08:58.508Z,5.62
2019-05-13T22:11:34.897Z,4.80
2019-05-13T22:14:07.850Z,5.47
2019-05-13T22:16:42.997Z,5.15
2019-05-13T22:19:17.821Z,4.92
2019-05-13T22:21:52.157Z,5.03
2019-05-13T22:24:26.017Z,4.47
2019-05-13T22:27:01.945Z,5.30
2019-05-13T22:29:35.278Z,5.10
2019-05-13T22:32:11.152Z,4.92
2019-05-13T22:34:45.652Z,4.67
2019-05-13T22:37:19.503Z,4.53
2019-05-13T22:39:54.429Z,4.22
2019-05-13T22:42:28.181Z,3.87
2019-05-13T22:45:02.769Z,3.95
2019-05-13T22:47:37.090Z,4.17
2019-05-13T22:50:12.718Z,3.75
2019-05-13T22:52:46.525Z,3.58
2019-05-13T22:55:21.886Z,3.70
2019-05-13T22:57:55.641Z,4.12
2019-05-13T23:00:31.580Z,4.00
2019-05-13T23:03:04.969Z,3.77
2019-05-13T23:05:38.760Z,3.67
2019-05-13T23:08:12.589Z,3.55
2019-05-13T23:10:46.556Z,3.52
2019-05-13T23:13:20.356Z,3.62
2019-05-13T23:15:54.160Z,3.33
2019-05-13T23:18:27.894Z,3.40
2019-05-13T23:21:02.426Z,3.42
2019-05-13T23:23:36.442Z,3.08
2019-05-13T23:26:11.890Z,3.10
2019-05-13T23:28:45.668Z,3.27
2019-05-13T23:31:19.529Z,3.20
2019-05-13T23:33:53.419Z,3.60
2019-05-13T23:36:27.123Z,3.30
2019-05-13T23:39:01.099Z,3.15
2019-05-13T23:41:35.087Z,2.90
2019-05-13T23:44:21.688Z,3.00
2019-05-13T23:46:44.152Z,3.12
2019-05-13T23:49:17.870Z,2.95
2019-05-13T23:51:52.044Z,2.85
2019-05-13T23:54:26.028Z,2.80
2019-05-13T23:57:01.186Z,2.92
2019-05-13T23:59:34.957Z,2.80
